Impacts TAF Board INFO
FOR SITUATIONAL AWARENESS. NOT TO BE USED FOR FLIGHT PLANNING PURPOSES.
IDs:

KORD - Chicago/O'Hare Intl, IL, US

Issued at 1508 UTC 18 Jan 2018
Updated at 1542 UTC 18 Jan 2018
Potential Impact None Slight Moderate High
Time<<19/16Z 19/17Z 19/18Z 19/19Z 19/20Z 19/21Z 19/22Z 19/23Z 20/00Z 20/01Z 20/02Z 20/03Z 20/04Z
Type PRVL PRVL
VIS >6 >6
CIG -- --
Cover FEW FEW
FltCat VFR VFR
WX -- --
WDir 220 220
WSpd 14 14
WGst 20 20

Raw TAF
KORD 181508Z 1815/1918 24016G23KT P6SM SCT250
  FM190000 23012KT P6SM SKC
  FM191600 22014G20KT P6SM FEW250


METAR Board
Radar Display
Forecast Discussion

FOR SITUATIONAL AWARENESS. NOT TO BE USED FOR FLIGHT PLANNING PURPOSES.